createdAt,value
2023-04-25T00:01:46.519Z,87.98
2023-04-25T00:04:50.113Z,87.19
2023-04-25T00:07:53.224Z,87.87
2023-04-25T00:10:56.105Z,87.40
2023-04-25T00:14:00.893Z,87.61
2023-04-25T00:17:07.220Z,87.15
2023-04-25T00:20:10.851Z,88.07
2023-04-25T00:23:19.361Z,87.95
2023-04-25T00:26:22.336Z,87.76
2023-04-25T00:29:25.399Z,87.10
2023-04-25T00:32:28.244Z,87.58
2023-04-25T00:35:31.092Z,87.46
2023-04-25T00:38:34.010Z,87.40
2023-04-25T00:41:37.454Z,87.02
2023-04-25T00:44:40.866Z,87.59
2023-04-25T00:47:44.475Z,87.46
2023-04-25T00:50:55.178Z,87.93
2023-04-25T00:53:57.981Z,88.47
2023-04-25T00:57:02.153Z,89.05
2023-04-25T01:00:07.866Z,90.00
2023-04-25T01:03:11.462Z,89.94
2023-04-25T01:06:14.384Z,90.05
2023-04-25T01:09:17.404Z,90.01
2023-04-25T01:12:21.300Z,89.80
2023-04-25T01:15:24.049Z,89.30
2023-04-25T01:18:27.218Z,89.07
2023-04-25T01:21:30.969Z,88.64
2023-04-25T01:24:34.561Z,88.43
2023-04-25T01:27:38.737Z,87.14
2023-04-25T01:30:42.908Z,87.40
2023-04-25T01:33:46.458Z,87.15
2023-04-25T01:36:51.272Z,87.60
2023-04-25T01:39:54.796Z,88.01
2023-04-25T01:42:59.161Z,87.83
2023-04-25T01:46:02.316Z,88.06
2023-04-25T01:49:05.172Z,87.89
2023-04-25T01:52:09.205Z,87.77
2023-04-25T01:55:13.099Z,86.52
2023-04-25T01:58:23.662Z,87.43
2023-04-25T02:01:41.375Z,86.41
2023-04-25T02:04:58.230Z,86.78
2023-04-25T02:08:03.518Z,86.31
2023-04-25T02:11:06.577Z,85.81
2023-04-25T02:14:17.306Z,85.34
2023-04-25T02:17:29.514Z,84.92
2023-04-25T02:20:32.684Z,83.61
2023-04-25T02:23:35.594Z,84.22
2023-04-25T02:26:38.370Z,84.10
2023-04-25T02:29:44.902Z,84.04
2023-04-25T02:32:47.698Z,82.85
2023-04-25T02:35:50.641Z,83.20
2023-04-25T02:38:53.458Z,83.78
2023-04-25T02:41:57.322Z,83.19
2023-04-25T02:45:00.172Z,82.68
2023-04-25T02:48:04.317Z,82.67
2023-04-25T02:51:08.522Z,82.42
2023-04-25T02:54:11.292Z,82.13
2023-04-25T02:57:17.930Z,81.69
2023-04-25T03:00:20.976Z,81.06
2023-04-25T03:03:23.989Z,80.53
2023-04-25T03:06:28.140Z,80.66
2023-04-25T03:09:31.101Z,80.33
2023-04-25T03:12:33.932Z,80.34
2023-04-25T03:15:37.475Z,80.10
2023-04-25T03:18:40.233Z,79.34
2023-04-25T03:21:43.223Z,79.24
2023-04-25T03:24:45.949Z,78.82
2023-04-25T03:27:50.314Z,77.97
2023-04-25T03:30:53.142Z,77.50
2023-04-25T03:33:55.916Z,77.04
2023-04-25T03:37:01.083Z,77.09
2023-04-25T03:40:05.191Z,76.69
2023-04-25T03:43:27.861Z,76.79
2023-04-25T03:46:36.031Z,76.02
2023-04-25T03:49:38.888Z,76.57
2023-04-25T03:52:42.757Z,76.49
2023-04-25T03:55:45.831Z,74.90
2023-04-25T03:58:49.580Z,74.99
2023-04-25T04:01:55.834Z,75.72
2023-04-25T04:04:59.387Z,75.06
2023-04-25T04:08:03.230Z,74.61
2023-04-25T04:11:07.406Z,75.10
2023-04-25T04:14:11.499Z,74.62
2023-04-25T04:17:18.350Z,75.04
2023-04-25T04:20:21.624Z,75.18
2023-04-25T04:23:25.224Z,75.08
2023-04-25T04:26:28.512Z,74.94
2023-04-25T04:29:43.523Z,75.42
2023-04-25T04:33:00.352Z,75.29
2023-04-25T04:36:04.018Z,75.03
2023-04-25T04:39:09.400Z,74.83
2023-04-25T04:42:18.978Z,75.32
2023-04-25T04:45:42.180Z,74.95
2023-04-25T04:49:08.053Z,75.11
2023-04-25T04:52:19.856Z,74.90
2023-04-25T04:55:32.514Z,73.71
2023-04-25T04:58:59.069Z,73.89
2023-04-25T05:02:19.108Z,73.23
2023-04-25T05:05:34.143Z,73.29
2023-04-25T05:08:39.949Z,73.24
2023-04-25T05:11:54.927Z,73.21
2023-04-25T05:15:07.021Z,73.38
2023-04-25T05:18:29.248Z,73.21
2023-04-25T05:21:46.433Z,72.02
2023-04-25T05:25:08.089Z,71.40
2023-04-25T05:28:27.438Z,71.43
2023-04-25T05:31:49.804Z,71.58
2023-04-25T05:34:53.578Z,71.69
2023-04-25T05:38:01.422Z,71.84
2023-04-25T05:41:26.299Z,70.97
2023-04-25T05:44:52.072Z,70.33
2023-04-25T05:48:12.501Z,70.24
2023-04-25T05:51:27.172Z,69.41
2023-04-25T05:54:48.654Z,68.19
2023-04-25T05:57:51.768Z,68.38
2023-04-25T06:00:55.815Z,68.15
2023-04-25T06:04:08.518Z,66.30
2023-04-25T06:07:11.589Z,66.52
2023-04-25T06:10:16.142Z,66.68
2023-04-25T06:13:19.303Z,66.60
2023-04-25T06:16:22.331Z,68.01
2023-04-25T06:19:25.479Z,68.17
2023-04-25T06:22:29.618Z,66.81
2023-04-25T06:25:33.035Z,67.02
2023-04-25T06:28:36.608Z,66.50
2023-04-25T06:31:39.628Z,66.44
2023-04-25T06:34:42.561Z,66.14
2023-04-25T06:37:45.725Z,65.87
2023-04-25T06:40:48.745Z,63.96
2023-04-25T06:43:52.378Z,64.70
2023-04-25T06:47:08.670Z,64.33
2023-04-25T06:50:12.056Z,64.67
2023-04-25T06:53:15.947Z,64.16
2023-04-25T06:56:22.520Z,64.01
2023-04-25T06:59:35.399Z,63.20
2023-04-25T07:02:39.658Z,63.68
2023-04-25T07:05:43.245Z,62.71
2023-04-25T07:08:46.305Z,63.02
2023-04-25T07:11:49.116Z,61.99
2023-04-25T07:14:52.166Z,60.51
2023-04-25T07:17:55.005Z,62.39
2023-04-25T07:20:57.959Z,62.65
2023-04-25T07:24:00.862Z,62.95
2023-04-25T07:27:08.615Z,62.36
2023-04-25T07:30:32.070Z,62.89
2023-04-25T07:33:36.026Z,60.75
2023-04-25T07:36:39.062Z,60.78
2023-04-25T07:39:43.089Z,60.46
2023-04-25T07:42:46.847Z,57.48
2023-04-25T07:45:54.311Z,60.33
2023-04-25T07:48:58.184Z,58.38
2023-04-25T07:52:01.444Z,58.92
2023-04-25T07:55:05.282Z,58.93
2023-04-25T07:58:22.403Z,58.76
2023-04-25T08:01:29.403Z,57.84
2023-04-25T08:04:36.671Z,56.73
2023-04-25T08:07:42.864Z,57.34
2023-04-25T08:10:46.153Z,56.36
2023-04-25T08:13:49.825Z,56.13
2023-04-25T08:16:52.646Z,56.99
2023-04-25T08:19:57.113Z,58.47
2023-04-25T08:23:04.102Z,58.57
2023-04-25T08:26:19.203Z,58.53
2023-04-25T08:29:27.053Z,58.80
2023-04-25T08:32:31.270Z,57.37
2023-04-25T08:35:54.944Z,56.31
2023-04-25T08:38:59.936Z,57.33
2023-04-25T08:42:08.763Z,54.14
2023-04-25T08:45:12.530Z,55.81
2023-04-25T08:48:18.981Z,56.74
2023-04-25T08:51:26.998Z,56.14
2023-04-25T08:54:35.263Z,56.18
2023-04-25T08:57:43.935Z,55.98
2023-04-25T09:00:49.162Z,55.24
2023-04-25T09:03:53.151Z,54.73
2023-04-25T09:06:55.969Z,54.22
2023-04-25T09:10:00.938Z,54.58
2023-04-25T09:13:16.809Z,53.62
2023-04-25T09:17:02.255Z,53.92
2023-04-25T09:20:56.559Z,51.03
2023-04-25T09:24:04.410Z,51.27
2023-04-25T09:27:19.265Z,50.75
2023-04-25T09:30:31.559Z,50.26
2023-04-25T09:34:19.211Z,47.72
2023-04-25T09:37:31.460Z,50.55
2023-04-25T09:40:53.055Z,49.73
2023-04-25T09:44:04.776Z,49.80
2023-04-25T09:47:17.567Z,47.97
2023-04-25T09:50:25.733Z,46.17
2023-04-25T09:53:40.014Z,48.07
2023-04-25T09:57:23.597Z,48.07
2023-04-25T10:00:27.663Z,49.25
2023-04-25T10:03:36.211Z,49.08
2023-04-25T10:07:09.569Z,45.44
2023-04-25T10:10:14.476Z,46.83
2023-04-25T10:13:17.555Z,46.58
2023-04-25T10:16:21.289Z,46.15
2023-04-25T10:19:25.582Z,46.40
2023-04-25T10:22:36.062Z,44.63
2023-04-25T10:25:39.750Z,47.18
2023-04-25T10:29:02.420Z,45.06
2023-04-25T10:32:17.794Z,45.13
2023-04-25T10:35:36.348Z,43.69
2023-04-25T10:39:12.375Z,43.82
2023-04-25T10:42:15.254Z,46.14
2023-04-25T10:45:18.955Z,44.37
2023-04-25T10:48:32.484Z,41.40
2023-04-25T10:51:54.210Z,44.34
2023-04-25T10:54:59.308Z,47.67
2023-04-25T10:58:02.160Z,45.69
2023-04-25T11:01:05.023Z,44.85
2023-04-25T11:04:24.447Z,44.17
2023-04-25T11:07:38.491Z,44.80
2023-04-25T11:10:42.423Z,44.82
2023-04-25T11:13:45.328Z,42.04
2023-04-25T11:16:48.116Z,42.71
2023-04-25T11:19:51.261Z,45.25
2023-04-25T11:22:54.121Z,44.36
2023-04-25T11:25:57.345Z,43.33
2023-04-25T11:29:01.532Z,44.02
2023-04-25T11:32:04.679Z,43.54
2023-04-25T11:35:08.412Z,41.64
2023-04-25T11:38:12.085Z,41.94
2023-04-25T11:41:14.908Z,41.29
2023-04-25T11:44:18.618Z,42.32
2023-04-25T11:47:21.559Z,43.67
2023-04-25T11:50:24.381Z,43.72
2023-04-25T11:53:29.452Z,44.13
2023-04-25T11:56:32.332Z,42.08
2023-04-25T11:59:35.176Z,41.26
2023-04-25T12:02:38.855Z,40.68
2023-04-25T12:05:41.834Z,42.55
2023-04-25T12:09:05.033Z,44.76
2023-04-25T12:12:11.119Z,43.30
2023-04-25T12:15:20.778Z,39.75
2023-04-25T12:18:29.024Z,41.00
2023-04-25T12:21:35.363Z,41.08
2023-04-25T12:24:41.546Z,40.50
2023-04-25T12:27:45.406Z,42.94
2023-04-25T12:31:06.312Z,43.33
2023-04-25T12:34:09.122Z,42.23
2023-04-25T12:37:12.526Z,40.46
2023-04-25T12:40:15.390Z,41.26
2023-04-25T12:43:19.059Z,39.81
2023-04-25T12:46:21.905Z,38.72
2023-04-25T12:49:25.289Z,37.15
2023-04-25T12:52:28.239Z,39.17
2023-04-25T12:55:31.015Z,39.61
2023-04-25T12:58:34.839Z,38.91
2023-04-25T13:01:37.885Z,40.81
2023-04-25T13:04:40.836Z,41.30
2023-04-25T13:07:43.632Z,40.77
2023-04-25T13:10:46.391Z,41.08
2023-04-25T13:13:49.352Z,40.96
2023-04-25T13:16:52.286Z,38.36
2023-04-25T13:19:55.002Z,37.03
2023-04-25T13:23:00.225Z,37.13
2023-04-25T13:26:04.027Z,37.05
2023-04-25T13:29:07.388Z,36.61
2023-04-25T13:32:10.602Z,37.57
2023-04-25T13:35:15.128Z,40.58
2023-04-25T13:38:17.883Z,41.64
2023-04-25T13:41:21.548Z,41.29
2023-04-25T13:44:24.623Z,40.66
2023-04-25T13:47:28.161Z,39.47
2023-04-25T13:50:31.397Z,38.05
2023-04-25T13:53:34.372Z,38.72
2023-04-25T13:56:37.117Z,41.28
2023-04-25T13:59:41.768Z,40.32
2023-04-25T14:02:44.618Z,41.00
2023-04-25T14:05:47.481Z,40.44
2023-04-25T14:08:51.909Z,42.00
2023-04-25T14:11:54.910Z,37.76
2023-04-25T14:14:57.600Z,36.07
2023-04-25T14:18:01.198Z,35.66
2023-04-25T14:21:04.135Z,36.28
2023-04-25T14:24:07.500Z,38.94
2023-04-25T14:27:10.654Z,37.35
2023-04-25T14:30:13.724Z,36.49
2023-04-25T14:33:16.544Z,33.57
2023-04-25T14:36:19.576Z,35.07
2023-04-25T14:39:22.425Z,34.42
2023-04-25T14:42:25.433Z,35.85
2023-04-25T14:45:28.219Z,37.97
2023-04-25T14:48:31.257Z,38.51
2023-04-25T14:51:34.403Z,39.81
2023-04-25T14:54:37.544Z,39.96
2023-04-25T14:57:40.446Z,40.74
2023-04-25T15:00:45.333Z,39.67
2023-04-25T15:03:49.557Z,39.75
2023-04-25T15:06:53.314Z,37.30
2023-04-25T15:09:57.812Z,37.33
2023-04-25T15:13:01.130Z,35.87
2023-04-25T15:16:04.357Z,35.57
2023-04-25T15:19:07.563Z,36.17
2023-04-25T15:22:10.802Z,39.23
2023-04-25T15:25:13.794Z,39.07
2023-04-25T15:28:17.140Z,38.83
2023-04-25T15:31:20.336Z,39.19
2023-04-25T15:34:23.383Z,39.90
2023-04-25T15:37:26.643Z,40.70
2023-04-25T15:40:29.409Z,39.82
2023-04-25T15:43:32.246Z,40.76
2023-04-25T15:46:35.208Z,41.15
2023-04-25T15:49:38.105Z,42.10
2023-04-25T15:52:42.098Z,43.90
2023-04-25T15:55:45.087Z,44.19
2023-04-25T15:58:48.434Z,44.35
2023-04-25T16:01:51.179Z,45.90
2023-04-25T16:04:54.049Z,45.75
2023-04-25T16:07:57.236Z,46.41
2023-04-25T16:11:01.383Z,46.44
2023-04-25T16:14:04.317Z,45.83
2023-04-25T16:17:07.116Z,46.57
2023-04-25T16:20:12.759Z,47.24
2023-04-25T16:23:15.614Z,46.54
2023-04-25T16:26:18.453Z,46.62
2023-04-25T16:29:21.509Z,46.90
2023-04-25T16:32:24.529Z,48.05
2023-04-25T16:35:30.581Z,48.20
2023-04-25T16:38:33.394Z,47.25
2023-04-25T16:41:36.190Z,46.47
2023-04-25T16:44:38.946Z,47.00
2023-04-25T16:47:41.743Z,46.71
2023-04-25T16:50:44.555Z,47.41
2023-04-25T16:53:48.634Z,48.25
2023-04-25T16:56:52.687Z,48.37
2023-04-25T16:59:55.489Z,47.21
2023-04-25T17:02:58.404Z,47.87
2023-04-25T17:06:01.929Z,48.02
2023-04-25T17:09:06.196Z,49.52
2023-04-25T17:12:09.411Z,50.72
2023-04-25T17:15:12.467Z,51.30
2023-04-25T17:18:15.952Z,52.02
2023-04-25T17:21:19.122Z,53.02
2023-04-25T17:24:22.164Z,53.00
2023-04-25T17:27:25.032Z,53.81
2023-04-25T17:30:32.359Z,54.53
2023-04-25T17:33:35.335Z,54.33
2023-04-25T17:36:38.572Z,54.18
2023-04-25T17:39:41.841Z,55.48
2023-04-25T17:42:46.138Z,53.87
2023-04-25T17:45:49.220Z,55.18
2023-04-25T17:48:52.926Z,54.62
2023-04-25T17:51:56.126Z,54.29
2023-04-25T17:54:59.011Z,54.28
2023-04-25T17:58:01.970Z,54.12
2023-04-25T18:01:05.713Z,54.37
2023-04-25T18:04:09.054Z,54.35
2023-04-25T18:07:13.403Z,54.50
2023-04-25T18:10:16.349Z,54.33
2023-04-25T18:13:19.349Z,54.56
2023-04-25T18:16:22.559Z,55.74
2023-04-25T18:19:25.538Z,55.59
2023-04-25T18:22:28.987Z,55.66
2023-04-25T18:25:32.132Z,56.16
2023-04-25T18:28:35.356Z,56.23
2023-04-25T18:31:38.673Z,57.39
2023-04-25T18:34:46.262Z,58.87
2023-04-25T18:37:49.755Z,59.22
2023-04-25T18:41:02.334Z,59.73
2023-04-25T18:44:13.508Z,60.62
2023-04-25T18:47:17.265Z,61.49
2023-04-25T18:50:22.773Z,62.06
2023-04-25T18:53:26.037Z,61.97
2023-04-25T18:56:28.901Z,63.52
2023-04-25T18:59:33.327Z,63.23
2023-04-25T19:02:37.223Z,63.76
2023-04-25T19:05:40.962Z,64.37
2023-04-25T19:08:45.085Z,64.93
2023-04-25T19:11:48.028Z,65.64
2023-04-25T19:14:51.266Z,66.27
2023-04-25T19:17:54.319Z,65.55
2023-04-25T19:20:57.875Z,65.38
2023-04-25T19:24:02.124Z,66.60
2023-04-25T19:27:04.940Z,66.50
2023-04-25T19:30:08.917Z,67.40
2023-04-25T19:33:12.296Z,67.14
2023-04-25T19:36:15.482Z,67.45
2023-04-25T19:39:18.247Z,68.06
2023-04-25T19:42:21.272Z,68.54
2023-04-25T19:45:24.753Z,69.38
2023-04-25T19:48:27.967Z,69.59
2023-04-25T19:51:31.750Z,68.37
2023-04-25T19:54:34.700Z,68.60
2023-04-25T19:57:38.216Z,68.60
2023-04-25T20:00:41.476Z,68.71
2023-04-25T20:03:44.797Z,68.90
2023-04-25T20:06:47.866Z,69.71
2023-04-25T20:09:50.885Z,69.60
2023-04-25T20:12:54.667Z,69.08
2023-04-25T20:15:57.475Z,68.69
2023-04-25T20:19:01.633Z,68.38
2023-04-25T20:22:04.798Z,67.87
2023-04-25T20:25:09.261Z,67.75
2023-04-25T20:28:12.467Z,68.01
2023-04-25T20:31:15.417Z,68.52
2023-04-25T20:34:19.983Z,69.88
2023-04-25T20:37:23.185Z,70.80
2023-04-25T20:40:26.960Z,70.92
2023-04-25T20:43:31.395Z,70.72
2023-04-25T20:46:36.429Z,70.12
2023-04-25T20:49:39.388Z,69.75
2023-04-25T20:52:43.346Z,69.02
2023-04-25T20:55:46.621Z,68.79
2023-04-25T20:58:49.969Z,67.82
2023-04-25T21:01:54.873Z,67.23
2023-04-25T21:04:57.628Z,67.30
2023-04-25T21:08:00.348Z,66.95
2023-04-25T21:11:03.366Z,67.13
2023-04-25T21:14:07.220Z,66.77
2023-04-25T21:17:10.098Z,66.76
2023-04-25T21:20:16.031Z,66.56
2023-04-25T21:23:19.497Z,65.27
2023-04-25T21:26:22.464Z,65.13
2023-04-25T21:29:25.428Z,65.13
2023-04-25T21:32:28.440Z,64.63
2023-04-25T21:35:31.438Z,64.96
2023-04-25T21:38:34.439Z,64.77
2023-04-25T21:41:37.741Z,65.23
2023-04-25T21:44:40.473Z,64.76
2023-04-25T21:47:43.253Z,65.04
2023-04-25T21:50:46.129Z,64.39
2023-04-25T21:53:48.893Z,65.00
2023-04-25T21:56:51.654Z,65.25
2023-04-25T21:59:54.424Z,64.81
2023-04-25T22:02:57.827Z,64.84
2023-04-25T22:06:00.683Z,65.15
2023-04-25T22:09:04.920Z,65.46
2023-04-25T22:12:08.206Z,65.67
2023-04-25T22:15:12.835Z,65.90
2023-04-25T22:18:16.474Z,66.28
2023-04-25T22:21:19.659Z,66.82
2023-04-25T22:24:22.871Z,67.95
2023-04-25T22:27:25.624Z,68.51
2023-04-25T22:30:31.033Z,69.11
2023-04-25T22:33:35.317Z,69.19
2023-04-25T22:36:38.021Z,69.44
2023-04-25T22:39:40.820Z,69.96
2023-04-25T22:42:44.357Z,69.84
2023-04-25T22:45:47.345Z,69.75
2023-04-25T22:48:50.860Z,69.88
2023-04-25T22:51:57.588Z,70.23
2023-04-25T22:55:01.816Z,70.16
2023-04-25T22:58:05.237Z,70.24
2023-04-25T23:01:09.013Z,69.59
2023-04-25T23:04:12.037Z,69.83
2023-04-25T23:07:14.978Z,69.78
2023-04-25T23:10:18.827Z,70.20
2023-04-25T23:13:22.169Z,70.12
2023-04-25T23:16:25.033Z,69.92
2023-04-25T23:19:28.424Z,70.05
2023-04-25T23:22:31.308Z,69.91
2023-04-25T23:25:39.995Z,70.05
2023-04-25T23:28:43.107Z,69.80
2023-04-25T23:31:45.909Z,69.79
2023-04-25T23:34:49.309Z,69.77
2023-04-25T23:37:52.158Z,69.82
2023-04-25T23:40:54.953Z,69.69
2023-04-25T23:43:57.760Z,70.05
2023-04-25T23:47:01.211Z,70.76
2023-04-25T23:50:04.461Z,70.86
2023-04-25T23:53:09.281Z,71.46
2023-04-25T23:56:12.174Z,71.89
2023-04-25T23:59:14.914Z,71.80
